フェアバンクス の空港の天気 - METARとTAF

フェアバンクス国際空港 ( PAFA / FAI ) - アメリカ アラスカ州フェアバンクス
飛行場実況気象(Metar)
観測時間07/22 09:53 AKDT (07/22 17:53 UTC)
風向・風速北北東 2m/s
視程10km以上
天気現象
少しの雲 雲底高度 2740m
少しの雲 雲底高度 6100m
気温22.2℃
湿度53%
気圧1023hPa
METARPAFA 221753Z 02003KT 10SM FEW090 FEW200 22/12 A3020 RMK AO2 SLP230 FU DSNT N-NE T02220122 10222 20133 58003
過去の天気等 Google飛行場航空写真 Wunderground天気予報

過去48時間のMETAR

飛行場予報(TAF)
発表時間: 7/22 09:39 AKDT (7/22 17:39 UTC)
予報対象時間: 22日10時 AKDT ~ 23日16時 AKDT
風向・風速北北東 2m/s
視程10km以上
少しの雲 雲底高度 2740m
PAFA 221739Z 2218/2324 03003KT P6SM FEW090